sensor_id;sensor_type;location;lat;lon;timestamp;P1;durP1;ratioP1;P2;durP2;ratioP2
846;SDS011;410;48.954;9.474;2024-02-15T00:01:34;8.40;;;7.00;;
846;SDS011;410;48.954;9.474;2024-02-15T00:03:38;9.33;;;7.03;;
846;SDS011;410;48.954;9.474;2024-02-15T00:05:43;10.60;;;7.20;;
846;SDS011;410;48.954;9.474;2024-02-15T00:07:47;10.60;;;6.90;;
846;SDS011;410;48.954;9.474;2024-02-15T00:09:51;11.03;;;7.57;;
846;SDS011;410;48.954;9.474;2024-02-15T00:11:55;9.77;;;6.70;;
846;SDS011;410;48.954;9.474;2024-02-15T00:14:01;10.30;;;7.00;;
846;SDS011;410;48.954;9.474;2024-02-15T00:16:05;11.40;;;6.57;;
846;SDS011;410;48.954;9.474;2024-02-15T00:18:08;9.20;;;7.00;;
846;SDS011;410;48.954;9.474;2024-02-15T00:20:12;9.70;;;7.17;;
846;SDS011;410;48.954;9.474;2024-02-15T00:22:15;10.93;;;7.10;;
846;SDS011;410;48.954;9.474;2024-02-15T00:24:20;11.70;;;7.90;;
846;SDS011;410;48.954;9.474;2024-02-15T00:26:24;13.37;;;6.90;;
846;SDS011;410;48.954;9.474;2024-02-15T00:28:27;9.43;;;7.07;;
846;SDS011;410;48.954;9.474;2024-02-15T00:30:31;8.30;;;6.63;;
846;SDS011;410;48.954;9.474;2024-02-15T00:32:34;11.80;;;7.23;;
846;SDS011;410;48.954;9.474;2024-02-15T00:34:39;8.97;;;6.73;;
846;SDS011;410;48.954;9.474;2024-02-15T00:36:43;11.90;;;7.50;;
846;SDS011;410;48.954;9.474;2024-02-15T00:38:46;10.47;;;7.30;;
846;SDS011;410;48.954;9.474;2024-02-15T00:40:51;8.47;;;7.30;;
846;SDS011;410;48.954;9.474;2024-02-15T00:42:54;8.67;;;6.70;;
846;SDS011;410;48.954;9.474;2024-02-15T00:44:58;11.00;;;7.73;;
846;SDS011;410;48.954;9.474;2024-02-15T00:47:01;8.60;;;6.87;;
846;SDS011;410;48.954;9.474;2024-02-15T00:49:04;10.20;;;7.40;;
846;SDS011;410;48.954;9.474;2024-02-15T00:51:08;13.30;;;7.00;;
846;SDS011;410;48.954;9.474;2024-02-15T00:53:11;8.83;;;6.53;;
846;SDS011;410;48.954;9.474;2024-02-15T00:55:15;9.50;;;6.67;;
846;SDS011;410;48.954;9.474;2024-02-15T00:57:20;9.73;;;7.67;;
846;SDS011;410;48.954;9.474;2024-02-15T00:59:23;10.63;;;6.97;;
846;SDS011;410;48.954;9.474;2024-02-15T01:01:25;11.03;;;9.23;;
846;SDS011;410;48.954;9.474;2024-02-15T01:03:28;13.53;;;9.33;;
846;SDS011;410;48.954;9.474;2024-02-15T01:05:32;11.27;;;8.93;;
846;SDS011;410;48.954;9.474;2024-02-15T01:07:36;11.73;;;8.57;;
846;SDS011;410;48.954;9.474;2024-02-15T01:09:40;9.77;;;7.80;;
846;SDS011;410;48.954;9.474;2024-02-15T01:11:43;9.50;;;7.33;;
846;SDS011;410;48.954;9.474;2024-02-15T01:13:49;10.30;;;6.90;;
846;SDS011;410;48.954;9.474;2024-02-15T01:15:52;12.87;;;8.27;;
846;SDS011;410;48.954;9.474;2024-02-15T01:17:56;11.80;;;8.73;;
846;SDS011;410;48.954;9.474;2024-02-15T01:19:59;10.50;;;8.40;;
846;SDS011;410;48.954;9.474;2024-02-15T01:22:03;8.43;;;7.47;;
846;SDS011;410;48.954;9.474;2024-02-15T01:24:08;10.33;;;7.70;;
846;SDS011;410;48.954;9.474;2024-02-15T01:26:12;9.50;;;7.47;;
846;SDS011;410;48.954;9.474;2024-02-15T01:28:14;11.00;;;7.63;;
846;SDS011;410;48.954;9.474;2024-02-15T01:30:19;10.23;;;7.30;;
846;SDS011;410;48.954;9.474;2024-02-15T01:32:22;10.40;;;8.10;;
846;SDS011;410;48.954;9.474;2024-02-15T01:34:26;9.23;;;7.00;;
846;SDS011;410;48.954;9.474;2024-02-15T01:36:29;10.97;;;7.53;;
846;SDS011;410;48.954;9.474;2024-02-15T01:38:32;9.23;;;7.40;;
846;SDS011;410;48.954;9.474;2024-02-15T01:40:35;9.97;;;7.97;;
846;SDS011;410;48.954;9.474;2024-02-15T01:42:38;8.90;;;7.23;;
846;SDS011;410;48.954;9.474;2024-02-15T01:44:43;9.90;;;7.40;;
846;SDS011;410;48.954;9.474;2024-02-15T01:46:48;10.20;;;8.20;;
846;SDS011;410;48.954;9.474;2024-02-15T01:48:51;10.37;;;7.93;;
846;SDS011;410;48.954;9.474;2024-02-15T01:50:54;9.73;;;6.73;;
846;SDS011;410;48.954;9.474;2024-02-15T01:52:56;10.40;;;7.50;;
846;SDS011;410;48.954;9.474;2024-02-15T01:55:01;9.87;;;7.20;;
846;SDS011;410;48.954;9.474;2024-02-15T01:57:09;11.30;;;7.50;;
846;SDS011;410;48.954;9.474;2024-02-15T01:59:12;9.10;;;6.80;;
846;SDS011;410;48.954;9.474;2024-02-15T02:01:19;11.83;;;7.43;;
846;SDS011;410;48.954;9.474;2024-02-15T02:03:25;10.80;;;7.83;;
846;SDS011;410;48.954;9.474;2024-02-15T02:05:27;9.50;;;7.73;;
846;SDS011;410;48.954;9.474;2024-02-15T02:07:32;10.00;;;7.57;;
846;SDS011;410;48.954;9.474;2024-02-15T02:09:35;9.30;;;7.17;;
846;SDS011;410;48.954;9.474;2024-02-15T02:11:38;11.13;;;8.07;;
846;SDS011;410;48.954;9.474;2024-02-15T02:13:41;10.90;;;7.50;;
846;SDS011;410;48.954;9.474;2024-02-15T02:15:44;10.73;;;7.97;;
846;SDS011;410;48.954;9.474;2024-02-15T02:17:48;9.53;;;7.57;;
846;SDS011;410;48.954;9.474;2024-02-15T02:19:54;11.73;;;7.77;;
846;SDS011;410;48.954;9.474;2024-02-15T02:21:59;9.73;;;7.20;;
846;SDS011;410;48.954;9.474;2024-02-15T02:24:03;11.30;;;8.00;;
846;SDS011;410;48.954;9.474;2024-02-15T02:26:11;11.93;;;7.80;;
846;SDS011;410;48.954;9.474;2024-02-15T02:28:15;12.97;;;7.77;;
846;SDS011;410;48.954;9.474;2024-02-15T02:30:19;9.03;;;6.93;;
846;SDS011;410;48.954;9.474;2024-02-15T02:32:24;10.33;;;7.60;;
846;SDS011;410;48.954;9.474;2024-02-15T02:34:27;11.13;;;7.40;;
846;SDS011;410;48.954;9.474;2024-02-15T02:36:30;10.83;;;6.90;;
846;SDS011;410;48.954;9.474;2024-02-15T02:38:34;11.63;;;7.37;;
846;SDS011;410;48.954;9.474;2024-02-15T02:40:39;8.63;;;7.10;;
846;SDS011;410;48.954;9.474;2024-02-15T02:42:50;9.97;;;6.50;;
846;SDS011;410;48.954;9.474;2024-02-15T02:44:55;9.17;;;7.40;;
846;SDS011;410;48.954;9.474;2024-02-15T02:46:59;7.93;;;6.40;;
846;SDS011;410;48.954;9.474;2024-02-15T02:49:03;10.43;;;7.60;;
846;SDS011;410;48.954;9.474;2024-02-15T02:51:07;10.73;;;7.47;;
846;SDS011;410;48.954;9.474;2024-02-15T02:53:10;9.00;;;7.20;;
846;SDS011;410;48.954;9.474;2024-02-15T02:55:15;9.83;;;6.40;;
846;SDS011;410;48.954;9.474;2024-02-15T02:57:19;10.53;;;6.27;;
846;SDS011;410;48.954;9.474;2024-02-15T02:59:23;13.17;;;7.30;;
846;SDS011;410;48.954;9.474;2024-02-15T03:01:27;11.20;;;7.33;;
846;SDS011;410;48.954;9.474;2024-02-15T03:03:30;9.70;;;6.50;;
846;SDS011;410;48.954;9.474;2024-02-15T03:05:32;9.30;;;7.30;;
846;SDS011;410;48.954;9.474;2024-02-15T03:07:35;9.97;;;6.63;;
846;SDS011;410;48.954;9.474;2024-02-15T03:09:39;10.63;;;6.80;;
846;SDS011;410;48.954;9.474;2024-02-15T03:11:43;10.13;;;6.93;;
846;SDS011;410;48.954;9.474;2024-02-15T03:13:46;12.37;;;7.30;;
846;SDS011;410;48.954;9.474;2024-02-15T03:15:51;10.97;;;6.57;;
846;SDS011;410;48.954;9.474;2024-02-15T03:17:54;8.73;;;6.17;;
846;SDS011;410;48.954;9.474;2024-02-15T03:19:57;10.23;;;7.13;;
846;SDS011;410;48.954;9.474;2024-02-15T03:22:02;7.80;;;6.07;;
846;SDS011;410;48.954;9.474;2024-02-15T03:24:05;10.67;;;6.50;;
846;SDS011;410;48.954;9.474;2024-02-15T03:26:09;9.40;;;6.50;;
846;SDS011;410;48.954;9.474;2024-02-15T03:28:13;11.77;;;7.00;;
846;SDS011;410;48.954;9.474;2024-02-15T03:30:17;9.20;;;7.00;;
846;SDS011;410;48.954;9.474;2024-02-15T03:32:20;11.37;;;6.33;;
846;SDS011;410;48.954;9.474;2024-02-15T03:34:24;9.73;;;6.70;;
846;SDS011;410;48.954;9.474;2024-02-15T03:36:28;10.37;;;7.17;;
846;SDS011;410;48.954;9.474;2024-02-15T03:38:31;10.37;;;6.27;;
846;SDS011;410;48.954;9.474;2024-02-15T03:40:34;8.87;;;5.83;;
846;SDS011;410;48.954;9.474;2024-02-15T03:42:39;8.47;;;6.30;;
846;SDS011;410;48.954;9.474;2024-02-15T03:44:42;12.57;;;7.00;;
846;SDS011;410;48.954;9.474;2024-02-15T03:46:45;10.53;;;6.50;;
846;SDS011;410;48.954;9.474;2024-02-15T03:48:53;9.20;;;6.93;;
846;SDS011;410;48.954;9.474;2024-02-15T03:50:57;8.20;;;6.43;;
846;SDS011;410;48.954;9.474;2024-02-15T03:53:01;12.13;;;6.83;;
846;SDS011;410;48.954;9.474;2024-02-15T03:55:05;13.33;;;7.27;;
846;SDS011;410;48.954;9.474;2024-02-15T03:57:09;11.00;;;6.37;;
846;SDS011;410;48.954;9.474;2024-02-15T03:59:14;10.93;;;6.70;;
846;SDS011;410;48.954;9.474;2024-02-15T04:01:17;9.60;;;6.43;;
846;SDS011;410;48.954;9.474;2024-02-15T04:03:21;9.23;;;6.30;;
846;SDS011;410;48.954;9.474;2024-02-15T04:05:26;11.43;;;7.10;;
846;SDS011;410;48.954;9.474;2024-02-15T04:07:28;11.00;;;7.40;;
846;SDS011;410;48.954;9.474;2024-02-15T04:09:31;11.70;;;7.50;;
846;SDS011;410;48.954;9.474;2024-02-15T04:11:37;7.55;;;6.47;;
846;SDS011;410;48.954;9.474;2024-02-15T04:13:41;11.00;;;7.27;;
846;SDS011;410;48.954;9.474;2024-02-15T04:15:46;12.60;;;7.27;;
846;SDS011;410;48.954;9.474;2024-02-15T04:17:53;10.40;;;7.23;;
846;SDS011;410;48.954;9.474;2024-02-15T04:19:59;11.70;;;7.10;;
846;SDS011;410;48.954;9.474;2024-02-15T04:22:05;8.73;;;6.23;;
846;SDS011;410;48.954;9.474;2024-02-15T04:24:10;10.20;;;7.60;;
846;SDS011;410;48.954;9.474;2024-02-15T04:26:16;8.97;;;7.20;;
846;SDS011;410;48.954;9.474;2024-02-15T04:28:21;11.47;;;7.33;;
846;SDS011;410;48.954;9.474;2024-02-15T04:30:25;8.50;;;6.83;;
846;SDS011;410;48.954;9.474;2024-02-15T04:32:27;9.13;;;6.23;;
846;SDS011;410;48.954;9.474;2024-02-15T04:34:35;10.53;;;6.80;;
846;SDS011;410;48.954;9.474;2024-02-15T04:36:39;11.03;;;6.73;;
846;SDS011;410;48.954;9.474;2024-02-15T04:38:46;11.73;;;6.77;;
846;SDS011;410;48.954;9.474;2024-02-15T04:40:51;9.80;;;5.80;;
846;SDS011;410;48.954;9.474;2024-02-15T04:43:00;9.30;;;5.60;;
846;SDS011;410;48.954;9.474;2024-02-15T04:45:07;8.30;;;5.60;;
846;SDS011;410;48.954;9.474;2024-02-15T04:47:25;9.20;;;6.60;;
846;SDS011;410;48.954;9.474;2024-02-15T04:49:28;7.97;;;5.90;;
846;SDS011;410;48.954;9.474;2024-02-15T04:51:32;8.00;;;6.30;;
846;SDS011;410;48.954;9.474;2024-02-15T04:53:36;9.60;;;6.07;;
846;SDS011;410;48.954;9.474;2024-02-15T04:55:42;7.10;;;5.77;;
846;SDS011;410;48.954;9.474;2024-02-15T04:57:46;8.57;;;6.00;;
846;SDS011;410;48.954;9.474;2024-02-15T04:59:52;8.03;;;5.17;;
846;SDS011;410;48.954;9.474;2024-02-15T05:01:57;9.50;;;5.33;;
846;SDS011;410;48.954;9.474;2024-02-15T05:04:02;8.30;;;5.70;;
846;SDS011;410;48.954;9.474;2024-02-15T05:06:08;9.80;;;5.40;;
846;SDS011;410;48.954;9.474;2024-02-15T05:08:13;7.23;;;5.17;;
846;SDS011;410;48.954;9.474;2024-02-15T05:10:28;7.20;;;5.80;;
846;SDS011;410;48.954;9.474;2024-02-15T05:12:37;7.70;;;5.50;;
846;SDS011;410;48.954;9.474;2024-02-15T05:14:43;9.90;;;5.33;;
846;SDS011;410;48.954;9.474;2024-02-15T05:16:48;8.87;;;5.43;;
846;SDS011;410;48.954;9.474;2024-02-15T05:19:04;7.50;;;5.80;;
846;SDS011;410;48.954;9.474;2024-02-15T05:21:28;6.70;;;4.90;;
846;SDS011;410;48.954;9.474;2024-02-15T05:23:36;8.90;;;5.13;;
846;SDS011;410;48.954;9.474;2024-02-15T05:26:01;8.37;;;5.20;;
846;SDS011;410;48.954;9.474;2024-02-15T05:28:27;6.63;;;5.57;;
846;SDS011;410;48.954;9.474;2024-02-15T05:30:50;8.53;;;5.60;;
846;SDS011;410;48.954;9.474;2024-02-15T05:33:13;7.13;;;5.60;;
846;SDS011;410;48.954;9.474;2024-02-15T05:35:36;8.60;;;5.40;;
846;SDS011;410;48.954;9.474;2024-02-15T05:37:44;8.00;;;5.70;;
846;SDS011;410;48.954;9.474;2024-02-15T05:39:53;10.70;;;6.67;;
846;SDS011;410;48.954;9.474;2024-02-15T05:41:59;10.13;;;6.40;;
846;SDS011;410;48.954;9.474;2024-02-15T05:44:09;9.93;;;6.17;;
846;SDS011;410;48.954;9.474;2024-02-15T05:46:13;10.27;;;6.90;;
846;SDS011;410;48.954;9.474;2024-02-15T05:48:18;9.83;;;6.30;;
846;SDS011;410;48.954;9.474;2024-02-15T05:50:30;9.73;;;6.30;;
846;SDS011;410;48.954;9.474;2024-02-15T05:52:35;13.03;;;6.80;;
846;SDS011;410;48.954;9.474;2024-02-15T05:54:58;9.20;;;6.40;;
846;SDS011;410;48.954;9.474;2024-02-15T05:57:02;12.17;;;6.57;;
846;SDS011;410;48.954;9.474;2024-02-15T05:59:19;8.87;;;6.07;;
846;SDS011;410;48.954;9.474;2024-02-15T06:01:43;8.50;;;6.73;;
846;SDS011;410;48.954;9.474;2024-02-15T06:03:50;8.07;;;6.90;;
846;SDS011;410;48.954;9.474;2024-02-15T06:06:07;9.50;;;6.67;;
846;SDS011;410;48.954;9.474;2024-02-15T06:08:31;11.47;;;7.10;;
846;SDS011;410;48.954;9.474;2024-02-15T06:10:36;9.90;;;7.23;;
846;SDS011;410;48.954;9.474;2024-02-15T06:12:43;10.20;;;7.17;;
846;SDS011;410;48.954;9.474;2024-02-15T06:14:49;9.23;;;6.73;;
846;SDS011;410;48.954;9.474;2024-02-15T06:17:13;10.40;;;6.73;;
846;SDS011;410;48.954;9.474;2024-02-15T06:19:36;11.33;;;7.00;;
846;SDS011;410;48.954;9.474;2024-02-15T06:21:45;9.53;;;7.23;;
846;SDS011;410;48.954;9.474;2024-02-15T06:24:09;8.70;;;7.00;;
846;SDS011;410;48.954;9.474;2024-02-15T06:26:15;9.20;;;7.43;;
846;SDS011;410;48.954;9.474;2024-02-15T06:28:38;10.53;;;7.67;;
846;SDS011;410;48.954;9.474;2024-02-15T06:31:20;11.03;;;7.00;;
846;SDS011;410;48.954;9.474;2024-02-15T06:33:45;10.93;;;7.20;;
846;SDS011;410;48.954;9.474;2024-02-15T06:36:21;15.70;;;13.60;;
846;SDS011;410;48.954;9.474;2024-02-15T06:38:56;9.50;;;7.63;;
846;SDS011;410;48.954;9.474;2024-02-15T06:41:19;11.40;;;7.00;;
846;SDS011;410;48.954;9.474;2024-02-15T06:43:28;11.13;;;7.10;;
846;SDS011;410;48.954;9.474;2024-02-15T06:45:35;12.17;;;8.40;;
846;SDS011;410;48.954;9.474;2024-02-15T06:47:55;9.13;;;7.40;;
846;SDS011;410;48.954;9.474;2024-02-15T06:50:19;9.13;;;7.40;;
846;SDS011;410;48.954;9.474;2024-02-15T06:52:25;13.93;;;10.37;;
846;SDS011;410;48.954;9.474;2024-02-15T06:54:36;15.87;;;10.47;;
846;SDS011;410;48.954;9.474;2024-02-15T06:56:41;13.50;;;11.13;;
846;SDS011;410;48.954;9.474;2024-02-15T06:59:05;14.50;;;12.70;;
846;SDS011;410;48.954;9.474;2024-02-15T07:01:29;15.80;;;11.43;;
846;SDS011;410;48.954;9.474;2024-02-15T07:03:53;10.40;;;7.60;;
846;SDS011;410;48.954;9.474;2024-02-15T07:06:20;10.07;;;7.43;;
846;SDS011;410;48.954;9.474;2024-02-15T07:08:43;11.33;;;8.00;;
846;SDS011;410;48.954;9.474;2024-02-15T07:10:49;9.87;;;7.53;;
846;SDS011;410;48.954;9.474;2024-02-15T07:12:55;12.80;;;10.17;;
846;SDS011;410;48.954;9.474;2024-02-15T07:15:18;12.00;;;9.50;;
846;SDS011;410;48.954;9.474;2024-02-15T07:17:41;13.80;;;8.77;;
846;SDS011;410;48.954;9.474;2024-02-15T07:19:49;17.10;;;12.53;;
846;SDS011;410;48.954;9.474;2024-02-15T07:22:01;10.87;;;8.20;;
846;SDS011;410;48.954;9.474;2024-02-15T07:24:24;7.50;;;5.53;;
846;SDS011;410;48.954;9.474;2024-02-15T07:26:49;7.00;;;4.67;;
846;SDS011;410;48.954;9.474;2024-02-15T07:28:58;12.07;;;9.93;;
846;SDS011;410;48.954;9.474;2024-02-15T07:31:15;14.23;;;11.27;;
846;SDS011;410;48.954;9.474;2024-02-15T07:33:36;15.40;;;10.70;;
846;SDS011;410;48.954;9.474;2024-02-15T07:35:56;14.43;;;10.53;;
846;SDS011;410;48.954;9.474;2024-02-15T07:38:11;13.60;;;9.77;;
846;SDS011;410;48.954;9.474;2024-02-15T07:40:34;19.10;;;8.50;;
846;SDS011;410;48.954;9.474;2024-02-15T07:42:51;9.23;;;6.60;;
846;SDS011;410;48.954;9.474;2024-02-15T07:44:56;12.13;;;6.17;;
846;SDS011;410;48.954;9.474;2024-02-15T07:47:13;18.90;;;8.93;;
846;SDS011;410;48.954;9.474;2024-02-15T07:49:30;47.33;;;25.90;;
846;SDS011;410;48.954;9.474;2024-02-15T07:51:39;11.00;;;7.30;;
846;SDS011;410;48.954;9.474;2024-02-15T07:54:03;8.67;;;6.27;;
846;SDS011;410;48.954;9.474;2024-02-15T07:56:28;9.97;;;6.97;;
846;SDS011;410;48.954;9.474;2024-02-15T07:58:48;8.10;;;5.77;;
846;SDS011;410;48.954;9.474;2024-02-15T08:01:15;6.63;;;4.03;;
846;SDS011;410;48.954;9.474;2024-02-15T08:03:38;5.60;;;2.70;;
846;SDS011;410;48.954;9.474;2024-02-15T08:06:06;5.53;;;2.73;;
846;SDS011;410;48.954;9.474;2024-02-15T08:08:30;4.90;;;3.00;;
846;SDS011;410;48.954;9.474;2024-02-15T08:10:49;6.40;;;3.70;;
846;SDS011;410;48.954;9.474;2024-02-15T08:13:13;5.87;;;3.20;;
846;SDS011;410;48.954;9.474;2024-02-15T08:15:27;5.90;;;2.90;;
846;SDS011;410;48.954;9.474;2024-02-15T08:17:50;4.30;;;2.40;;
846;SDS011;410;48.954;9.474;2024-02-15T08:20:13;3.10;;;2.23;;
846;SDS011;410;48.954;9.474;2024-02-15T08:22:25;4.90;;;2.50;;
846;SDS011;410;48.954;9.474;2024-02-15T08:24:32;3.80;;;2.00;;
846;SDS011;410;48.954;9.474;2024-02-15T08:26:55;3.60;;;1.90;;
846;SDS011;410;48.954;9.474;2024-02-15T08:29:20;5.47;;;1.90;;
846;SDS011;410;48.954;9.474;2024-02-15T08:31:44;4.03;;;1.90;;
846;SDS011;410;48.954;9.474;2024-02-15T08:33:56;2.90;;;1.73;;
846;SDS011;410;48.954;9.474;2024-02-15T08:36:13;3.90;;;1.63;;
846;SDS011;410;48.954;9.474;2024-02-15T08:38:36;4.20;;;2.30;;
846;SDS011;410;48.954;9.474;2024-02-15T08:40:59;3.60;;;1.60;;
846;SDS011;410;48.954;9.474;2024-02-15T08:43:22;4.33;;;2.03;;
846;SDS011;410;48.954;9.474;2024-02-15T08:45:46;3.23;;;1.60;;
846;SDS011;410;48.954;9.474;2024-02-15T08:47:58;3.63;;;1.60;;
846;SDS011;410;48.954;9.474;2024-02-15T08:50:15;3.30;;;1.90;;
846;SDS011;410;48.954;9.474;2024-02-15T08:52:39;4.13;;;1.40;;
846;SDS011;410;48.954;9.474;2024-02-15T08:55:04;3.20;;;1.67;;
846;SDS011;410;48.954;9.474;2024-02-15T08:57:30;3.30;;;1.73;;
846;SDS011;410;48.954;9.474;2024-02-15T08:59:53;3.63;;;1.47;;
846;SDS011;410;48.954;9.474;2024-02-15T09:02:03;3.27;;;1.67;;
846;SDS011;410;48.954;9.474;2024-02-15T09:04:27;4.03;;;1.77;;
846;SDS011;410;48.954;9.474;2024-02-15T09:06:46;3.63;;;1.60;;
846;SDS011;410;48.954;9.474;2024-02-15T09:09:09;3.83;;;1.97;;
846;SDS011;410;48.954;9.474;2024-02-15T09:11:33;2.50;;;1.60;;
846;SDS011;410;48.954;9.474;2024-02-15T09:13:57;4.03;;;1.70;;
846;SDS011;410;48.954;9.474;2024-02-15T09:16:20;4.30;;;1.63;;
846;SDS011;410;48.954;9.474;2024-02-15T09:18:44;3.40;;;1.50;;
846;SDS011;410;48.954;9.474;2024-02-15T09:21:08;2.70;;;1.47;;
846;SDS011;410;48.954;9.474;2024-02-15T09:23:31;5.53;;;2.10;;
846;SDS011;410;48.954;9.474;2024-02-15T09:25:37;2.73;;;1.40;;
846;SDS011;410;48.954;9.474;2024-02-15T09:27:43;4.23;;;2.00;;
846;SDS011;410;48.954;9.474;2024-02-15T09:30:09;4.67;;;1.80;;
846;SDS011;410;48.954;9.474;2024-02-15T09:32:33;2.93;;;1.60;;
846;SDS011;410;48.954;9.474;2024-02-15T09:34:57;3.47;;;1.60;;
846;SDS011;410;48.954;9.474;2024-02-15T09:37:14;3.40;;;1.70;;
846;SDS011;410;48.954;9.474;2024-02-15T09:39:37;3.70;;;1.40;;
846;SDS011;410;48.954;9.474;2024-02-15T09:41:55;2.90;;;1.50;;
846;SDS011;410;48.954;9.474;2024-02-15T09:44:20;3.90;;;1.77;;
846;SDS011;410;48.954;9.474;2024-02-15T09:46:26;3.03;;;1.40;;
846;SDS011;410;48.954;9.474;2024-02-15T09:48:52;8.30;;;2.20;;
846;SDS011;410;48.954;9.474;2024-02-15T09:51:21;2.80;;;1.20;;
846;SDS011;410;48.954;9.474;2024-02-15T09:53:45;3.07;;;1.60;;
846;SDS011;410;48.954;9.474;2024-02-15T09:56:09;5.57;;;1.47;;
846;SDS011;410;48.954;9.474;2024-02-15T09:58:33;3.93;;;1.70;;
846;SDS011;410;48.954;9.474;2024-02-15T10:00:38;2.60;;;1.60;;
846;SDS011;410;48.954;9.474;2024-02-15T10:03:05;5.10;;;2.30;;
846;SDS011;410;48.954;9.474;2024-02-15T10:05:29;3.00;;;1.40;;
846;SDS011;410;48.954;9.474;2024-02-15T10:07:47;2.73;;;1.33;;
846;SDS011;410;48.954;9.474;2024-02-15T10:10:17;4.50;;;1.50;;
846;SDS011;410;48.954;9.474;2024-02-15T10:12:42;6.93;;;3.40;;
846;SDS011;410;48.954;9.474;2024-02-15T10:15:06;3.50;;;1.63;;
846;SDS011;410;48.954;9.474;2024-02-15T10:17:31;5.40;;;2.30;;
846;SDS011;410;48.954;9.474;2024-02-15T10:20:05;3.60;;;1.50;;
846;SDS011;410;48.954;9.474;2024-02-15T10:22:31;4.07;;;1.67;;
846;SDS011;410;48.954;9.474;2024-02-15T10:24:59;5.90;;;1.70;;
846;SDS011;410;48.954;9.474;2024-02-15T10:27:33;3.17;;;1.37;;
846;SDS011;410;48.954;9.474;2024-02-15T10:30:01;3.73;;;1.60;;
846;SDS011;410;48.954;9.474;2024-02-15T10:32:37;3.17;;;1.80;;
846;SDS011;410;48.954;9.474;2024-02-15T10:35:00;3.50;;;1.20;;
846;SDS011;410;48.954;9.474;2024-02-15T10:37:27;2.80;;;1.30;;
846;SDS011;410;48.954;9.474;2024-02-15T10:39:55;3.47;;;1.50;;
846;SDS011;410;48.954;9.474;2024-02-15T10:42:27;2.60;;;1.27;;
846;SDS011;410;48.954;9.474;2024-02-15T10:44:51;4.50;;;1.20;;
846;SDS011;410;48.954;9.474;2024-02-15T10:47:02;6.23;;;1.60;;
846;SDS011;410;48.954;9.474;2024-02-15T10:49:28;3.60;;;1.40;;
846;SDS011;410;48.954;9.474;2024-02-15T10:51:43;2.97;;;1.60;;
846;SDS011;410;48.954;9.474;2024-02-15T10:54:08;5.00;;;1.30;;
846;SDS011;410;48.954;9.474;2024-02-15T10:56:37;3.67;;;1.50;;
846;SDS011;410;48.954;9.474;2024-02-15T10:59:08;4.73;;;1.47;;
846;SDS011;410;48.954;9.474;2024-02-15T11:01:35;2.77;;;1.17;;
846;SDS011;410;48.954;9.474;2024-02-15T11:04:05;2.40;;;1.27;;
846;SDS011;410;48.954;9.474;2024-02-15T11:06:30;2.30;;;1.27;;
846;SDS011;410;48.954;9.474;2024-02-15T11:08:56;2.40;;;1.37;;
846;SDS011;410;48.954;9.474;2024-02-15T11:11:22;4.60;;;1.13;;
846;SDS011;410;48.954;9.474;2024-02-15T11:13:29;2.33;;;1.10;;
846;SDS011;410;48.954;9.474;2024-02-15T11:15:52;3.30;;;1.27;;
846;SDS011;410;48.954;9.474;2024-02-15T11:21:04;3.13;;;1.30;;
846;SDS011;410;48.954;9.474;2024-02-15T11:23:28;3.33;;;1.40;;
846;SDS011;410;48.954;9.474;2024-02-15T11:25:57;2.93;;;1.30;;
846;SDS011;410;48.954;9.474;2024-02-15T11:31:09;2.70;;;1.33;;
846;SDS011;410;48.954;9.474;2024-02-15T11:33:34;4.97;;;1.30;;
846;SDS011;410;48.954;9.474;2024-02-15T11:36:02;2.07;;;1.00;;
846;SDS011;410;48.954;9.474;2024-02-15T11:38:27;2.77;;;1.10;;
846;SDS011;410;48.954;9.474;2024-02-15T11:41:00;5.07;;;2.00;;
846;SDS011;410;48.954;9.474;2024-02-15T11:46:20;5.13;;;1.40;;
846;SDS011;410;48.954;9.474;2024-02-15T11:48:43;3.03;;;1.20;;
846;SDS011;410;48.954;9.474;2024-02-15T11:51:08;3.27;;;1.20;;
846;SDS011;410;48.954;9.474;2024-02-15T11:53:33;3.83;;;1.20;;
846;SDS011;410;48.954;9.474;2024-02-15T11:55:59;2.20;;;0.80;;
846;SDS011;410;48.954;9.474;2024-02-15T11:58:24;3.90;;;1.27;;
846;SDS011;410;48.954;9.474;2024-02-15T12:00:59;3.00;;;1.00;;
846;SDS011;410;48.954;9.474;2024-02-15T12:03:40;2.80;;;1.20;;
846;SDS011;410;48.954;9.474;2024-02-15T12:06:28;2.57;;;1.13;;
846;SDS011;410;48.954;9.474;2024-02-15T12:09:09;3.30;;;1.47;;
846;SDS011;410;48.954;9.474;2024-02-15T12:11:42;2.90;;;1.10;;
846;SDS011;410;48.954;9.474;2024-02-15T12:14:23;4.20;;;1.00;;
846;SDS011;410;48.954;9.474;2024-02-15T12:17:06;3.53;;;1.10;;
846;SDS011;410;48.954;9.474;2024-02-15T12:19:33;3.30;;;1.37;;
846;SDS011;410;48.954;9.474;2024-02-15T12:21:56;2.10;;;0.80;;
846;SDS011;410;48.954;9.474;2024-02-15T12:24:21;2.23;;;0.90;;
846;SDS011;410;48.954;9.474;2024-02-15T12:26:48;2.40;;;0.90;;
846;SDS011;410;48.954;9.474;2024-02-15T12:29:03;4.00;;;1.00;;
846;SDS011;410;48.954;9.474;2024-02-15T12:31:28;3.00;;;0.93;;
846;SDS011;410;48.954;9.474;2024-02-15T12:34:03;3.10;;;1.10;;
846;SDS011;410;48.954;9.474;2024-02-15T12:36:28;4.03;;;1.10;;
846;SDS011;410;48.954;9.474;2024-02-15T12:38:58;3.10;;;1.10;;
846;SDS011;410;48.954;9.474;2024-02-15T12:41:22;3.40;;;1.20;;
846;SDS011;410;48.954;9.474;2024-02-15T12:43:45;3.23;;;1.20;;
846;SDS011;410;48.954;9.474;2024-02-15T12:46:09;8.30;;;5.13;;
846;SDS011;410;48.954;9.474;2024-02-15T12:48:29;3.07;;;1.43;;
846;SDS011;410;48.954;9.474;2024-02-15T12:50:53;4.03;;;1.10;;
846;SDS011;410;48.954;9.474;2024-02-15T12:53:21;3.27;;;1.10;;
846;SDS011;410;48.954;9.474;2024-02-15T12:55:44;4.50;;;3.20;;
846;SDS011;410;48.954;9.474;2024-02-15T12:58:16;3.23;;;1.73;;
846;SDS011;410;48.954;9.474;2024-02-15T13:00:41;3.73;;;1.80;;
846;SDS011;410;48.954;9.474;2024-02-15T13:03:05;2.37;;;1.00;;
846;SDS011;410;48.954;9.474;2024-02-15T13:05:30;2.57;;;1.30;;
846;SDS011;410;48.954;9.474;2024-02-15T13:07:55;4.60;;;1.27;;
846;SDS011;410;48.954;9.474;2024-02-15T13:10:20;2.97;;;1.13;;
846;SDS011;410;48.954;9.474;2024-02-15T13:12:29;2.60;;;0.97;;
846;SDS011;410;48.954;9.474;2024-02-15T13:14:51;3.20;;;1.03;;
846;SDS011;410;48.954;9.474;2024-02-15T13:17:15;3.17;;;1.00;;
846;SDS011;410;48.954;9.474;2024-02-15T13:19:43;4.87;;;1.00;;
846;SDS011;410;48.954;9.474;2024-02-15T13:22:07;4.43;;;1.77;;
846;SDS011;410;48.954;9.474;2024-02-15T13:24:32;3.67;;;1.53;;
846;SDS011;410;48.954;9.474;2024-02-15T13:26:56;2.80;;;1.20;;
846;SDS011;410;48.954;9.474;2024-02-15T13:29:20;3.17;;;1.43;;
846;SDS011;410;48.954;9.474;2024-02-15T13:31:44;2.50;;;1.20;;
846;SDS011;410;48.954;9.474;2024-02-15T13:34:08;4.10;;;1.43;;
846;SDS011;410;48.954;9.474;2024-02-15T13:36:31;2.77;;;1.00;;
846;SDS011;410;48.954;9.474;2024-02-15T13:38:56;4.33;;;1.30;;
846;SDS011;410;48.954;9.474;2024-02-15T13:41:20;3.10;;;1.40;;
846;SDS011;410;48.954;9.474;2024-02-15T13:43:43;4.70;;;1.20;;
846;SDS011;410;48.954;9.474;2024-02-15T13:46:07;3.13;;;1.27;;
846;SDS011;410;48.954;9.474;2024-02-15T13:48:30;2.53;;;1.07;;
846;SDS011;410;48.954;9.474;2024-02-15T13:50:54;5.23;;;1.60;;
846;SDS011;410;48.954;9.474;2024-02-15T13:53:17;3.80;;;1.60;;
846;SDS011;410;48.954;9.474;2024-02-15T13:55:40;3.53;;;1.50;;
846;SDS011;410;48.954;9.474;2024-02-15T13:58:05;2.60;;;1.43;;
846;SDS011;410;48.954;9.474;2024-02-15T14:00:30;4.00;;;1.47;;
846;SDS011;410;48.954;9.474;2024-02-15T14:02:40;6.93;;;1.50;;
846;SDS011;410;48.954;9.474;2024-02-15T14:05:04;3.67;;;1.20;;
846;SDS011;410;48.954;9.474;2024-02-15T14:07:29;4.17;;;1.33;;
846;SDS011;410;48.954;9.474;2024-02-15T14:09:53;2.80;;;1.50;;
846;SDS011;410;48.954;9.474;2024-02-15T14:12:23;3.00;;;1.80;;
846;SDS011;410;48.954;9.474;2024-02-15T14:14:48;4.20;;;1.30;;
846;SDS011;410;48.954;9.474;2024-02-15T14:17:11;3.53;;;1.10;;
846;SDS011;410;48.954;9.474;2024-02-15T14:19:36;3.63;;;1.63;;
846;SDS011;410;48.954;9.474;2024-02-15T14:21:59;2.37;;;1.07;;
846;SDS011;410;48.954;9.474;2024-02-15T14:24:23;5.50;;;1.00;;
846;SDS011;410;48.954;9.474;2024-02-15T14:26:44;2.83;;;1.03;;
846;SDS011;410;48.954;9.474;2024-02-15T14:29:08;3.27;;;1.23;;